createdAt,value
2019-04-23T00:02:04.143Z,2.30
2019-04-23T00:04:28.738Z,2.73
2019-04-23T00:07:07.948Z,2.40
2019-04-23T00:09:34.102Z,2.43
2019-04-23T00:12:11.991Z,2.80
2019-04-23T00:14:49.495Z,2.33
2019-04-23T00:17:18.057Z,2.33
2019-04-23T00:19:39.747Z,3.13
2019-04-23T00:22:20.495Z,2.80
2019-04-23T00:27:32.068Z,2.53
2019-04-23T00:29:56.461Z,3.00
2019-04-23T00:32:28.712Z,2.73
2019-04-23T00:35:00.777Z,2.37
2019-04-23T00:37:31.563Z,2.50
2019-04-23T00:40:00.946Z,2.37
2019-04-23T00:42:36.546Z,2.40
2019-04-23T00:45:01.770Z,2.80
2019-04-23T00:52:32.180Z,2.97
2019-04-23T00:57:41.282Z,2.53
2019-04-23T01:02:45.881Z,2.50
2019-04-23T01:07:47.563Z,2.57
2019-04-23T01:10:25.659Z,2.20
2019-04-23T01:15:26.223Z,2.90
2019-04-23T01:18:20.594Z,2.70
2019-04-23T01:20:29.163Z,3.00
2019-04-23T01:22:42.072Z,3.20
2019-04-23T01:25:24.716Z,3.30
2019-04-23T01:28:23.219Z,2.73
2019-04-23T01:30:55.384Z,3.00
2019-04-23T01:33:27.072Z,2.63
2019-04-23T01:36:03.078Z,3.30
2019-04-23T01:38:29.257Z,3.30
2019-04-23T01:40:53.774Z,3.07
2019-04-23T01:43:23.811Z,3.27
2019-04-23T01:45:56.167Z,2.93
2019-04-23T01:48:26.155Z,3.20
2019-04-23T01:53:34.799Z,2.70
2019-04-23T01:56:01.329Z,2.60
2019-04-23T01:58:38.538Z,3.37
2019-04-23T02:03:36.866Z,2.93
2019-04-23T02:06:11.702Z,2.80
2019-04-23T02:08:31.848Z,3.60
2019-04-23T02:11:10.619Z,3.37
2019-04-23T02:13:42.048Z,2.97
2019-04-23T02:16:10.191Z,3.50
2019-04-23T02:18:44.126Z,2.80
2019-04-23T02:21:16.927Z,3.57
2019-04-23T02:24:03.698Z,3.27
2019-04-23T02:26:36.849Z,3.50
2019-04-23T02:29:06.766Z,2.70
2019-04-23T02:39:04.844Z,3.63
2019-04-23T02:41:35.181Z,4.00
2019-04-23T02:44:14.651Z,3.83
2019-04-23T02:46:31.789Z,3.57
2019-04-23T02:49:21.479Z,4.23
2019-04-23T02:51:42.370Z,3.73
2019-04-23T02:56:49.343Z,3.50
2019-04-23T02:59:21.437Z,3.97
2019-04-23T03:01:39.731Z,3.70
2019-04-23T03:04:21.351Z,3.73
2019-04-23T03:06:48.150Z,3.60
2019-04-23T03:09:20.472Z,4.30
2019-04-23T03:11:50.102Z,3.67
2019-04-23T03:14:18.683Z,3.10
2019-04-23T03:17:02.689Z,4.00
2019-04-23T03:19:49.783Z,3.60
2019-04-23T03:22:15.266Z,3.50
2019-04-23T03:25:23.426Z,4.60
2019-04-23T03:27:40.550Z,4.10
2019-04-23T03:30:27.148Z,4.20
2019-04-23T03:35:10.493Z,3.43
2019-04-23T03:40:13.624Z,3.63
2019-04-23T03:42:57.737Z,3.80
2019-04-23T03:48:00.780Z,4.40
2019-04-23T03:50:32.570Z,4.70
2019-04-23T03:53:22.603Z,4.43
2019-04-23T03:55:52.247Z,4.83
2019-04-23T03:57:54.191Z,3.93
2019-04-23T04:00:39.624Z,4.67
2019-04-23T04:05:40.034Z,4.20
2019-04-23T04:08:16.032Z,5.00
2019-04-23T04:10:46.493Z,5.20
2019-04-23T04:13:07.266Z,4.30
2019-04-23T04:21:03.201Z,4.67
2019-04-23T04:23:22.631Z,4.53
2019-04-23T04:25:59.490Z,4.50
2019-04-23T04:28:17.738Z,5.30
2019-04-23T04:30:52.111Z,4.47
2019-04-23T04:33:41.324Z,4.77
2019-04-23T04:35:58.254Z,4.43
2019-04-23T04:38:36.941Z,4.50
2019-04-23T04:43:32.199Z,4.67
2019-04-23T04:48:35.544Z,4.90
2019-04-23T04:51:18.878Z,4.63
2019-04-23T04:53:46.111Z,4.63
2019-04-23T04:56:27.948Z,4.53
2019-04-23T04:58:40.732Z,4.03
2019-04-23T05:01:07.643Z,4.80
2019-04-23T05:03:36.443Z,4.97
2019-04-23T05:08:39.662Z,4.37
2019-04-23T05:11:24.166Z,4.60
2019-04-23T05:16:12.455Z,5.17
2019-04-23T05:18:47.432Z,5.40
2019-04-23T05:21:43.159Z,5.00
2019-04-23T05:23:47.068Z,5.30
2019-04-23T05:26:23.937Z,4.40
2019-04-23T05:31:20.309Z,4.80
2019-04-23T05:33:57.108Z,5.47
2019-04-23T05:41:36.855Z,4.90
2019-04-23T05:43:58.048Z,5.40
2019-04-23T05:46:37.737Z,5.90
2019-04-23T05:48:59.519Z,5.40
2019-04-23T05:54:00.223Z,5.47
2019-04-23T05:56:30.819Z,4.83
2019-04-23T06:04:11.724Z,4.90
2019-04-23T06:06:52.508Z,5.00
2019-04-23T06:09:12.762Z,4.87
2019-04-23T06:14:13.465Z,5.20
2019-04-23T06:16:44.602Z,4.60
2019-04-23T06:19:14.372Z,4.73
2019-04-23T06:21:50.930Z,4.80
2019-04-23T06:37:02.835Z,5.20
2019-04-23T06:39:22.123Z,6.03
2019-04-23T06:41:49.837Z,4.53
2019-04-23T06:44:25.508Z,5.30
2019-04-23T06:47:03.214Z,4.63
2019-04-23T06:49:30.738Z,5.23
2019-04-23T06:54:42.425Z,4.63
2019-04-23T06:57:14.948Z,5.67
2019-04-23T06:59:30.758Z,5.30
2019-04-23T07:02:06.676Z,5.43
2019-04-23T07:04:41.060Z,5.90
2019-04-23T07:09:35.225Z,5.97
2019-04-23T07:12:11.135Z,5.70
2019-04-23T07:14:44.791Z,5.90
2019-04-23T07:17:08.884Z,5.80
2019-04-23T07:19:42.501Z,5.83
2019-04-23T07:25:00.347Z,5.20
2019-04-23T07:27:14.879Z,5.80
2019-04-23T07:29:45.740Z,5.80
2019-04-23T07:32:11.825Z,5.50
2019-04-23T07:34:49.752Z,5.30
2019-04-23T07:37:20.329Z,5.07
2019-04-23T07:40:27.538Z,5.73
2019-04-23T07:43:03.393Z,5.37
2019-04-23T07:45:51.919Z,5.67
2019-04-23T07:48:16.638Z,5.47
2019-04-23T07:50:52.139Z,5.73
2019-04-23T07:53:29.567Z,5.37
2019-04-23T07:58:28.593Z,6.17
2019-04-23T08:01:05.489Z,5.90
2019-04-23T08:03:36.567Z,5.00
2019-04-23T08:06:05.970Z,5.60
2019-04-23T08:08:37.921Z,5.40
2019-04-23T08:11:30.626Z,5.07
2019-04-23T08:13:47.785Z,4.57
2019-04-23T08:16:24.714Z,4.50
2019-04-23T08:18:52.685Z,5.17
2019-04-23T08:21:14.785Z,4.40
2019-04-23T08:29:25.393Z,3.70
2019-04-23T08:32:06.910Z,4.87
2019-04-23T08:37:09.275Z,5.10
2019-04-23T08:42:30.243Z,4.80
2019-04-23T08:45:21.734Z,4.87
2019-04-23T08:48:01.301Z,4.30
2019-04-23T08:50:27.712Z,5.63
2019-04-23T08:53:10.647Z,5.43
2019-04-23T08:57:56.172Z,5.20
2019-04-23T09:00:37.287Z,4.17
2019-04-23T09:03:04.601Z,4.73
2019-04-23T09:10:41.166Z,4.47
2019-04-23T09:13:35.081Z,5.47
2019-04-23T09:15:45.415Z,5.90
2019-04-23T09:18:16.383Z,4.83
2019-04-23T09:20:37.855Z,5.37
2019-04-23T09:23:18.616Z,4.27
2019-04-23T09:25:48.042Z,4.83
2019-04-23T09:28:27.634Z,6.00
2019-04-23T09:30:54.192Z,4.50
2019-04-23T09:33:36.131Z,3.70
2019-04-23T09:36:13.278Z,4.70
2019-04-23T09:39:12.515Z,4.20
2019-04-23T09:41:51.483Z,4.77
2019-04-23T09:47:41.680Z,4.70
2019-04-23T09:50:10.770Z,4.60
2019-04-23T09:55:15.889Z,4.27
2019-04-23T09:57:44.954Z,4.97
2019-04-23T10:00:16.906Z,4.33
2019-04-23T10:02:29.889Z,4.70
2019-04-23T10:05:03.285Z,4.50
2019-04-23T10:07:33.534Z,4.67
2019-04-23T10:09:48.319Z,5.37
2019-04-23T10:12:19.959Z,4.90
2019-04-23T10:14:59.326Z,4.97
2019-04-23T10:17:22.181Z,4.73
2019-04-23T10:19:53.005Z,4.10
2019-04-23T10:22:23.062Z,5.20
2019-04-23T10:24:53.263Z,5.10
2019-04-23T10:27:23.245Z,5.00
2019-04-23T10:29:53.992Z,4.50
2019-04-23T10:32:25.274Z,4.57
2019-04-23T10:35:06.662Z,5.20
2019-04-23T10:37:37.840Z,5.30
2019-04-23T10:40:00.933Z,4.47
2019-04-23T10:42:30.717Z,3.63
2019-04-23T10:45:26.926Z,4.67
2019-04-23T10:48:49.430Z,4.50
2019-04-23T10:51:24.915Z,4.13
2019-04-23T10:54:23.342Z,4.80
2019-04-23T10:56:56.976Z,4.20
2019-04-23T10:59:34.924Z,4.20
2019-04-23T11:02:21.694Z,4.57
2019-04-23T11:04:47.266Z,4.20
2019-04-23T11:12:32.990Z,5.30
2019-04-23T11:14:57.918Z,5.40
2019-04-23T11:19:56.465Z,4.50
2019-04-23T11:25:00.106Z,5.60
2019-04-23T11:27:27.986Z,5.07
2019-04-23T11:30:00.288Z,4.30
2019-04-23T11:35:17.569Z,4.20
2019-04-23T11:38:16.004Z,5.10
2019-04-23T11:42:42.602Z,4.50
2019-04-23T11:45:14.987Z,4.00
2019-04-23T11:50:39.683Z,5.17
2019-04-23T11:52:48.637Z,4.90
2019-04-23T11:55:27.081Z,4.57
2019-04-23T11:57:54.863Z,5.40
2019-04-23T12:00:13.858Z,5.40
2019-04-23T12:02:56.217Z,5.50
2019-04-23T12:08:44.688Z,4.47
2019-04-23T12:14:09.568Z,4.50
2019-04-23T12:16:54.030Z,5.00
2019-04-23T12:19:33.270Z,4.40
2019-04-23T12:24:17.071Z,5.83
2019-04-23T12:26:44.272Z,4.60
2019-04-23T12:29:20.326Z,5.43
2019-04-23T12:31:49.175Z,4.60
2019-04-23T12:34:20.737Z,5.30
2019-04-23T12:37:06.426Z,5.10
2019-04-23T12:39:25.948Z,5.63
2019-04-23T12:42:02.191Z,5.30
2019-04-23T12:44:34.849Z,5.50
2019-04-23T12:47:05.591Z,4.97
2019-04-23T12:50:05.151Z,5.30
2019-04-23T12:52:12.892Z,4.90
2019-04-23T12:54:53.244Z,5.00
2019-04-23T12:57:14.608Z,4.87
2019-04-23T12:59:44.740Z,4.63
2019-04-23T13:02:16.101Z,4.20
2019-04-23T13:04:49.064Z,5.30
2019-04-23T13:07:23.478Z,5.67
2019-04-23T13:12:33.067Z,4.87
2019-04-23T13:14:49.015Z,5.77
2019-04-23T13:19:58.206Z,4.43
2019-04-23T13:22:23.999Z,4.80
2019-04-23T13:25:27.223Z,5.30
2019-04-23T13:28:02.945Z,4.77
2019-04-23T13:30:31.586Z,5.70
2019-04-23T13:33:01.137Z,5.13
2019-04-23T13:37:59.014Z,4.83
2019-04-23T13:40:33.631Z,5.13
2019-04-23T13:42:57.239Z,4.80
2019-04-23T13:45:53.089Z,5.20
2019-04-23T13:55:36.238Z,5.27
2019-04-23T14:03:12.177Z,4.70
2019-04-23T14:05:59.547Z,5.00
2019-04-23T14:11:05.414Z,4.70
2019-04-23T14:13:46.311Z,4.33
2019-04-23T14:16:33.087Z,5.80
2019-04-23T14:18:51.573Z,4.50
2019-04-23T14:21:14.279Z,4.83
2019-04-23T14:24:00.283Z,4.50
2019-04-23T14:28:43.518Z,5.63
2019-04-23T14:33:52.811Z,5.57
2019-04-23T14:36:17.339Z,4.50
2019-04-23T14:38:44.472Z,6.03
2019-04-23T14:46:47.194Z,4.80
2019-04-23T14:48:51.778Z,4.77
2019-04-23T14:51:39.512Z,4.60
2019-04-23T14:53:47.886Z,5.40
2019-04-23T14:56:20.139Z,4.70
2019-04-23T15:03:49.415Z,5.50
2019-04-23T15:06:36.313Z,5.10
2019-04-23T15:09:04.258Z,5.00
2019-04-23T15:16:33.515Z,4.80
2019-04-23T15:22:08.418Z,5.83
2019-04-23T15:24:35.213Z,4.50
2019-04-23T15:29:22.807Z,5.13
2019-04-23T15:32:14.937Z,5.20
2019-04-23T15:34:30.534Z,5.13
2019-04-23T15:37:25.205Z,4.80
2019-04-23T15:44:40.705Z,5.70
2019-04-23T15:47:20.115Z,5.47
2019-04-23T15:49:48.919Z,5.60
2019-04-23T15:52:10.721Z,5.10
2019-04-23T15:54:48.346Z,5.67
2019-04-23T15:57:27.593Z,5.50
2019-04-23T16:00:01.701Z,5.40
2019-04-23T16:01:51.171Z,4.70
2019-04-23T16:04:20.819Z,4.37
2019-04-23T16:06:50.021Z,5.07
2019-04-23T16:09:50.896Z,4.27
2019-04-23T16:12:13.287Z,5.60
2019-04-23T16:14:58.421Z,4.73
2019-04-23T16:20:23.453Z,4.23
2019-04-23T16:22:39.722Z,4.40
2019-04-23T16:25:14.708Z,6.03
2019-04-23T16:27:44.497Z,4.63
2019-04-23T16:33:05.877Z,5.17
2019-04-23T16:35:33.008Z,4.70
2019-04-23T16:38:21.600Z,4.73
2019-04-23T16:43:10.121Z,4.87
2019-04-23T16:45:45.437Z,5.10
2019-04-23T16:48:20.261Z,4.63
2019-04-23T16:50:57.865Z,5.40
2019-04-23T16:53:16.149Z,5.30
2019-04-23T16:58:21.908Z,5.13
2019-04-23T17:00:57.233Z,4.50
2019-04-23T17:03:23.425Z,4.53
2019-04-23T17:05:50.687Z,4.67
2019-04-23T17:08:36.183Z,5.40
2019-04-23T17:10:53.349Z,5.20
2019-04-23T17:13:20.922Z,4.70
2019-04-23T17:21:09.737Z,5.40
2019-04-23T17:23:31.691Z,5.27
2019-04-23T17:25:57.257Z,4.90
2019-04-23T17:28:21.889Z,5.47
2019-04-23T17:31:20.792Z,5.20
2019-04-23T17:33:35.673Z,4.53
2019-04-23T17:36:30.614Z,5.40
2019-04-23T17:39:14.547Z,5.50
2019-04-23T17:42:12.551Z,4.73
2019-04-23T17:44:46.909Z,4.43
2019-04-23T17:47:14.180Z,4.90
2019-04-23T17:49:53.394Z,4.90
2019-04-23T17:54:51.078Z,5.37
2019-04-23T17:57:26.019Z,4.50
2019-04-23T18:05:02.836Z,4.70
2019-04-23T18:07:37.756Z,4.93
2019-04-23T18:10:12.037Z,6.00
2019-04-23T18:15:04.998Z,5.10
2019-04-23T18:17:43.113Z,4.50
2019-04-23T18:20:29.628Z,5.20
2019-04-23T18:27:54.217Z,5.33
2019-04-23T18:35:51.291Z,4.70
2019-04-23T18:38:31.935Z,4.90
2019-04-23T18:43:29.653Z,4.77
2019-04-23T18:51:03.330Z,5.50
2019-04-23T18:53:48.582Z,6.20
2019-04-23T19:01:27.964Z,5.37
2019-04-23T19:06:42.472Z,5.67
2019-04-23T19:09:23.863Z,5.33
2019-04-23T19:12:39.499Z,5.47
2019-04-23T19:25:06.532Z,5.23
2019-04-23T19:27:40.435Z,5.70
2019-04-23T19:30:16.428Z,5.10
2019-04-23T19:32:49.019Z,6.50
2019-04-23T19:35:33.592Z,6.03
2019-04-23T19:40:21.025Z,6.13
2019-04-23T19:42:54.181Z,6.17
2019-04-23T19:45:24.495Z,6.73
2019-04-23T19:48:13.434Z,5.63
2019-04-23T19:50:29.909Z,5.97
2019-04-23T19:55:21.459Z,6.20
2019-04-23T19:58:07.131Z,7.00
2019-04-23T20:00:39.370Z,6.03
2019-04-23T20:05:35.610Z,7.30
2019-04-23T20:08:04.401Z,6.60
2019-04-23T20:10:36.877Z,5.90
2019-04-23T20:13:07.153Z,6.37
2019-04-23T20:15:53.462Z,5.67
2019-04-23T20:18:13.374Z,6.10
2019-04-23T20:20:49.518Z,6.87
2019-04-23T20:23:11.870Z,6.67
2019-04-23T20:26:10.303Z,5.93
2019-04-23T20:45:55.878Z,6.30
2019-04-23T20:59:32.055Z,4.77
2019-04-23T21:06:05.804Z,5.23
2019-04-23T21:08:53.769Z,4.57
2019-04-23T21:11:06.309Z,4.43
2019-04-23T21:31:08.712Z,5.37
